sensor_id;sensor_type;location;lat;lon;timestamp;P1;durP1;ratioP1;P2;durP2;ratioP2
6203;SDS011;3135;42.602;23.468;2023-04-24T00:00:23;6.00;;;3.13;;
6203;SDS011;3135;42.602;23.468;2023-04-24T00:02:49;6.50;;;2.80;;
6203;SDS011;3135;42.602;23.468;2023-04-24T00:05:15;3.20;;;2.75;;
6203;SDS011;3135;42.602;23.468;2023-04-24T00:07:43;6.83;;;4.27;;
6203;SDS011;3135;42.602;23.468;2023-04-24T00:10:10;3.88;;;3.00;;
6203;SDS011;3135;42.602;23.468;2023-04-24T00:12:35;4.53;;;2.92;;
6203;SDS011;3135;42.602;23.468;2023-04-24T00:15:01;4.78;;;3.03;;
6203;SDS011;3135;42.602;23.468;2023-04-24T00:17:28;4.38;;;3.17;;
6203;SDS011;3135;42.602;23.468;2023-04-24T00:19:53;11.13;;;5.70;;
6203;SDS011;3135;42.602;23.468;2023-04-24T00:22:27;4.23;;;2.80;;
6203;SDS011;3135;42.602;23.468;2023-04-24T00:24:53;4.18;;;3.08;;
6203;SDS011;3135;42.602;23.468;2023-04-24T00:27:19;5.97;;;3.28;;
6203;SDS011;3135;42.602;23.468;2023-04-24T00:29:44;3.40;;;3.10;;
6203;SDS011;3135;42.602;23.468;2023-04-24T00:32:10;4.87;;;3.13;;
6203;SDS011;3135;42.602;23.468;2023-04-24T00:34:36;5.22;;;3.00;;
6203;SDS011;3135;42.602;23.468;2023-04-24T00:37:01;4.80;;;2.75;;
6203;SDS011;3135;42.602;23.468;2023-04-24T00:39:27;3.80;;;3.15;;
6203;SDS011;3135;42.602;23.468;2023-04-24T00:41:52;3.00;;;2.70;;
6203;SDS011;3135;42.602;23.468;2023-04-24T00:44:18;4.05;;;3.00;;
6203;SDS011;3135;42.602;23.468;2023-04-24T00:46:44;3.90;;;3.03;;
6203;SDS011;3135;42.602;23.468;2023-04-24T00:49:11;3.33;;;3.00;;
6203;SDS011;3135;42.602;23.468;2023-04-24T00:51:38;3.20;;;2.90;;
6203;SDS011;3135;42.602;23.468;2023-04-24T00:54:05;5.45;;;3.50;;
6203;SDS011;3135;42.602;23.468;2023-04-24T00:56:31;7.03;;;3.60;;
6203;SDS011;3135;42.602;23.468;2023-04-24T00:58:56;3.37;;;3.07;;
6203;SDS011;3135;42.602;23.468;2023-04-24T01:01:23;4.47;;;2.90;;
6203;SDS011;3135;42.602;23.468;2023-04-24T01:03:49;3.47;;;3.13;;
6203;SDS011;3135;42.602;23.468;2023-04-24T01:06:15;3.72;;;3.00;;
6203;SDS011;3135;42.602;23.468;2023-04-24T01:08:42;3.20;;;2.85;;
6203;SDS011;3135;42.602;23.468;2023-04-24T01:11:10;6.18;;;3.50;;
6203;SDS011;3135;42.602;23.468;2023-04-24T01:13:36;4.00;;;2.80;;
6203;SDS011;3135;42.602;23.468;2023-04-24T01:16:01;4.83;;;3.40;;
6203;SDS011;3135;42.602;23.468;2023-04-24T01:18:27;4.60;;;3.43;;
6203;SDS011;3135;42.602;23.468;2023-04-24T01:20:53;3.43;;;3.00;;
6203;SDS011;3135;42.602;23.468;2023-04-24T01:23:22;4.60;;;2.90;;
6203;SDS011;3135;42.602;23.468;2023-04-24T01:25:48;5.13;;;3.28;;
6203;SDS011;3135;42.602;23.468;2023-04-24T01:28:15;4.38;;;3.15;;
6203;SDS011;3135;42.602;23.468;2023-04-24T01:30:42;5.55;;;3.00;;
6203;SDS011;3135;42.602;23.468;2023-04-24T01:33:07;3.30;;;2.73;;
6203;SDS011;3135;42.602;23.468;2023-04-24T01:35:33;4.22;;;3.25;;
6203;SDS011;3135;42.602;23.468;2023-04-24T01:37:59;5.65;;;3.40;;
6203;SDS011;3135;42.602;23.468;2023-04-24T01:40:25;6.90;;;3.40;;
6203;SDS011;3135;42.602;23.468;2023-04-24T01:42:50;6.35;;;4.13;;
6203;SDS011;3135;42.602;23.468;2023-04-24T01:45:16;4.47;;;3.75;;
6203;SDS011;3135;42.602;23.468;2023-04-24T01:47:42;7.00;;;3.70;;
6203;SDS011;3135;42.602;23.468;2023-04-24T01:50:07;5.18;;;3.42;;
6203;SDS011;3135;42.602;23.468;2023-04-24T01:52:33;4.47;;;3.85;;
6203;SDS011;3135;42.602;23.468;2023-04-24T01:55:00;4.22;;;3.30;;
6203;SDS011;3135;42.602;23.468;2023-04-24T01:57:26;5.40;;;4.35;;
6203;SDS011;3135;42.602;23.468;2023-04-24T01:59:51;6.77;;;3.93;;
6203;SDS011;3135;42.602;23.468;2023-04-24T02:02:17;5.00;;;3.90;;
6203;SDS011;3135;42.602;23.468;2023-04-24T02:04:42;4.70;;;3.90;;
6203;SDS011;3135;42.602;23.468;2023-04-24T02:07:08;6.57;;;4.00;;
6203;SDS011;3135;42.602;23.468;2023-04-24T02:09:33;4.93;;;4.00;;
6203;SDS011;3135;42.602;23.468;2023-04-24T02:11:59;6.20;;;3.90;;
6203;SDS011;3135;42.602;23.468;2023-04-24T02:14:25;4.97;;;3.40;;
6203;SDS011;3135;42.602;23.468;2023-04-24T02:16:51;5.03;;;3.60;;
6203;SDS011;3135;42.602;23.468;2023-04-24T02:19:16;6.33;;;3.50;;
6203;SDS011;3135;42.602;23.468;2023-04-24T02:21:42;6.27;;;3.73;;
6203;SDS011;3135;42.602;23.468;2023-04-24T02:24:07;5.50;;;3.30;;
6203;SDS011;3135;42.602;23.468;2023-04-24T02:26:32;5.10;;;3.50;;
6203;SDS011;3135;42.602;23.468;2023-04-24T02:28:58;6.47;;;3.70;;
6203;SDS011;3135;42.602;23.468;2023-04-24T02:31:23;4.70;;;3.70;;
6203;SDS011;3135;42.602;23.468;2023-04-24T02:33:49;6.17;;;4.03;;
6203;SDS011;3135;42.602;23.468;2023-04-24T02:36:15;4.77;;;3.70;;
6203;SDS011;3135;42.602;23.468;2023-04-24T02:38:40;5.27;;;4.03;;
6203;SDS011;3135;42.602;23.468;2023-04-24T02:41:05;6.63;;;3.87;;
6203;SDS011;3135;42.602;23.468;2023-04-24T02:43:32;6.47;;;3.90;;
6203;SDS011;3135;42.602;23.468;2023-04-24T02:45:58;6.07;;;4.10;;
6203;SDS011;3135;42.602;23.468;2023-04-24T02:48:24;5.20;;;4.00;;
6203;SDS011;3135;42.602;23.468;2023-04-24T02:50:49;3.90;;;3.50;;
6203;SDS011;3135;42.602;23.468;2023-04-24T02:53:15;8.38;;;4.05;;
6203;SDS011;3135;42.602;23.468;2023-04-24T02:55:41;9.10;;;4.72;;
6203;SDS011;3135;42.602;23.468;2023-04-24T02:58:06;54.97;;;20.20;;
6203;SDS011;3135;42.602;23.468;2023-04-24T03:00:32;17.90;;;8.43;;
6203;SDS011;3135;42.602;23.468;2023-04-24T03:02:58;5.80;;;4.43;;
6203;SDS011;3135;42.602;23.468;2023-04-24T03:05:23;5.20;;;3.90;;
6203;SDS011;3135;42.602;23.468;2023-04-24T03:07:49;6.10;;;4.05;;
6203;SDS011;3135;42.602;23.468;2023-04-24T03:10:14;5.28;;;4.07;;
6203;SDS011;3135;42.602;23.468;2023-04-24T03:12:40;5.63;;;4.22;;
6203;SDS011;3135;42.602;23.468;2023-04-24T03:15:06;7.33;;;4.10;;
6203;SDS011;3135;42.602;23.468;2023-04-24T03:17:32;5.83;;;4.00;;
6203;SDS011;3135;42.602;23.468;2023-04-24T03:19:57;7.93;;;5.03;;
6203;SDS011;3135;42.602;23.468;2023-04-24T03:22:23;6.45;;;4.18;;
6203;SDS011;3135;42.602;23.468;2023-04-24T03:24:48;8.10;;;4.60;;
6203;SDS011;3135;42.602;23.468;2023-04-24T03:27:13;7.03;;;4.47;;
6203;SDS011;3135;42.602;23.468;2023-04-24T03:29:39;5.90;;;4.30;;
6203;SDS011;3135;42.602;23.468;2023-04-24T03:32:04;8.63;;;4.30;;
6203;SDS011;3135;42.602;23.468;2023-04-24T03:34:30;5.40;;;4.17;;
6203;SDS011;3135;42.602;23.468;2023-04-24T03:36:55;6.30;;;4.53;;
6203;SDS011;3135;42.602;23.468;2023-04-24T03:39:21;8.50;;;4.67;;
6203;SDS011;3135;42.602;23.468;2023-04-24T03:41:46;8.97;;;5.20;;
6203;SDS011;3135;42.602;23.468;2023-04-24T03:44:11;9.40;;;4.63;;
6203;SDS011;3135;42.602;23.468;2023-04-24T03:46:37;8.23;;;5.10;;
6203;SDS011;3135;42.602;23.468;2023-04-24T03:49:02;8.03;;;4.70;;
6203;SDS011;3135;42.602;23.468;2023-04-24T03:51:28;9.67;;;4.50;;
6203;SDS011;3135;42.602;23.468;2023-04-24T03:53:55;7.20;;;4.65;;
6203;SDS011;3135;42.602;23.468;2023-04-24T03:56:20;8.63;;;4.90;;
6203;SDS011;3135;42.602;23.468;2023-04-24T03:58:46;11.37;;;6.23;;
6203;SDS011;3135;42.602;23.468;2023-04-24T04:01:11;14.13;;;7.15;;
6203;SDS011;3135;42.602;23.468;2023-04-24T04:03:37;7.32;;;4.88;;
6203;SDS011;3135;42.602;23.468;2023-04-24T04:06:02;9.80;;;4.97;;
6203;SDS011;3135;42.602;23.468;2023-04-24T04:08:28;7.73;;;4.70;;
6203;SDS011;3135;42.602;23.468;2023-04-24T04:10:53;12.80;;;7.97;;
6203;SDS011;3135;42.602;23.468;2023-04-24T04:13:18;11.60;;;6.73;;
6203;SDS011;3135;42.602;23.468;2023-04-24T04:15:44;6.55;;;4.85;;
6203;SDS011;3135;42.602;23.468;2023-04-24T04:18:09;5.87;;;4.37;;
6203;SDS011;3135;42.602;23.468;2023-04-24T04:20:35;4.93;;;4.03;;
6203;SDS011;3135;42.602;23.468;2023-04-24T04:23:00;8.18;;;4.57;;
6203;SDS011;3135;42.602;23.468;2023-04-24T04:25:25;7.18;;;4.63;;
6203;SDS011;3135;42.602;23.468;2023-04-24T04:27:51;8.07;;;4.82;;
6203;SDS011;3135;42.602;23.468;2023-04-24T04:30:17;11.07;;;5.33;;
6203;SDS011;3135;42.602;23.468;2023-04-24T04:32:43;9.77;;;5.70;;
6203;SDS011;3135;42.602;23.468;2023-04-24T04:35:08;9.10;;;5.47;;
6203;SDS011;3135;42.602;23.468;2023-04-24T04:37:34;10.88;;;6.20;;
6203;SDS011;3135;42.602;23.468;2023-04-24T04:40:00;20.25;;;9.32;;
6203;SDS011;3135;42.602;23.468;2023-04-24T04:42:31;12.77;;;7.10;;
6203;SDS011;3135;42.602;23.468;2023-04-24T04:44:57;14.65;;;7.45;;
6203;SDS011;3135;42.602;23.468;2023-04-24T04:47:23;12.75;;;6.90;;
6203;SDS011;3135;42.602;23.468;2023-04-24T04:49:48;11.52;;;6.25;;
6203;SDS011;3135;42.602;23.468;2023-04-24T04:52:16;13.88;;;6.57;;
6203;SDS011;3135;42.602;23.468;2023-04-24T04:54:42;10.53;;;6.60;;
6203;SDS011;3135;42.602;23.468;2023-04-24T04:57:07;9.43;;;5.83;;
6203;SDS011;3135;42.602;23.468;2023-04-24T04:59:33;12.00;;;5.87;;
6203;SDS011;3135;42.602;23.468;2023-04-24T05:01:58;11.53;;;5.80;;
6203;SDS011;3135;42.602;23.468;2023-04-24T05:04:23;7.97;;;5.63;;
6203;SDS011;3135;42.602;23.468;2023-04-24T05:06:49;10.73;;;5.80;;
6203;SDS011;3135;42.602;23.468;2023-04-24T05:09:16;11.25;;;5.97;;
6203;SDS011;3135;42.602;23.468;2023-04-24T05:11:41;9.97;;;5.27;;
6203;SDS011;3135;42.602;23.468;2023-04-24T05:14:07;7.97;;;5.30;;
6203;SDS011;3135;42.602;23.468;2023-04-24T05:16:32;8.23;;;5.57;;
6203;SDS011;3135;42.602;23.468;2023-04-24T05:18:57;8.93;;;5.53;;
6203;SDS011;3135;42.602;23.468;2023-04-24T05:21:23;9.83;;;6.07;;
6203;SDS011;3135;42.602;23.468;2023-04-24T05:23:49;12.57;;;6.73;;
6203;SDS011;3135;42.602;23.468;2023-04-24T05:26:14;22.53;;;8.33;;
6203;SDS011;3135;42.602;23.468;2023-04-24T05:28:40;14.60;;;7.38;;
6203;SDS011;3135;42.602;23.468;2023-04-24T05:31:06;14.23;;;7.43;;
6203;SDS011;3135;42.602;23.468;2023-04-24T05:33:31;13.87;;;8.03;;
6203;SDS011;3135;42.602;23.468;2023-04-24T05:35:57;17.90;;;8.23;;
6203;SDS011;3135;42.602;23.468;2023-04-24T05:38:22;14.73;;;7.27;;
6203;SDS011;3135;42.602;23.468;2023-04-24T05:40:48;13.07;;;6.80;;
6203;SDS011;3135;42.602;23.468;2023-04-24T05:43:13;12.67;;;7.30;;
6203;SDS011;3135;42.602;23.468;2023-04-24T05:45:39;13.33;;;7.07;;
6203;SDS011;3135;42.602;23.468;2023-04-24T05:48:04;13.23;;;7.50;;
6203;SDS011;3135;42.602;23.468;2023-04-24T05:50:30;11.02;;;6.80;;
6203;SDS011;3135;42.602;23.468;2023-04-24T05:52:56;13.23;;;7.45;;
6203;SDS011;3135;42.602;23.468;2023-04-24T05:55:26;14.00;;;7.22;;
6203;SDS011;3135;42.602;23.468;2023-04-24T05:57:52;15.52;;;7.65;;
6203;SDS011;3135;42.602;23.468;2023-04-24T06:00:18;12.77;;;7.25;;
6203;SDS011;3135;42.602;23.468;2023-04-24T06:02:45;15.10;;;7.40;;
6203;SDS011;3135;42.602;23.468;2023-04-24T06:05:11;15.25;;;7.15;;
6203;SDS011;3135;42.602;23.468;2023-04-24T06:07:36;14.90;;;7.23;;
6203;SDS011;3135;42.602;23.468;2023-04-24T06:10:02;13.67;;;7.03;;
6203;SDS011;3135;42.602;23.468;2023-04-24T06:12:27;11.43;;;6.30;;
6203;SDS011;3135;42.602;23.468;2023-04-24T06:14:53;13.10;;;6.90;;
6203;SDS011;3135;42.602;23.468;2023-04-24T06:17:20;12.73;;;6.50;;
6203;SDS011;3135;42.602;23.468;2023-04-24T06:19:46;10.07;;;6.10;;
6203;SDS011;3135;42.602;23.468;2023-04-24T06:22:11;13.50;;;6.13;;
6203;SDS011;3135;42.602;23.468;2023-04-24T06:24:36;11.10;;;6.23;;
6203;SDS011;3135;42.602;23.468;2023-04-24T06:27:02;10.05;;;6.22;;
6203;SDS011;3135;42.602;23.468;2023-04-24T06:29:27;11.40;;;6.78;;
6203;SDS011;3135;42.602;23.468;2023-04-24T06:31:53;10.43;;;6.40;;
6203;SDS011;3135;42.602;23.468;2023-04-24T06:34:18;12.82;;;6.40;;
6203;SDS011;3135;42.602;23.468;2023-04-24T06:36:44;10.90;;;6.20;;
6203;SDS011;3135;42.602;23.468;2023-04-24T06:39:09;10.25;;;6.03;;
6203;SDS011;3135;42.602;23.468;2023-04-24T06:41:35;8.25;;;5.93;;
6203;SDS011;3135;42.602;23.468;2023-04-24T06:44:00;10.27;;;6.37;;
6203;SDS011;3135;42.602;23.468;2023-04-24T06:46:26;12.70;;;6.40;;
6203;SDS011;3135;42.602;23.468;2023-04-24T06:48:53;9.30;;;5.50;;
6203;SDS011;3135;42.602;23.468;2023-04-24T06:51:24;12.57;;;6.10;;
6203;SDS011;3135;42.602;23.468;2023-04-24T06:53:52;9.98;;;6.28;;
6203;SDS011;3135;42.602;23.468;2023-04-24T06:56:18;11.45;;;6.80;;
6203;SDS011;3135;42.602;23.468;2023-04-24T06:58:44;11.55;;;6.45;;
6203;SDS011;3135;42.602;23.468;2023-04-24T07:01:10;12.18;;;6.68;;
6203;SDS011;3135;42.602;23.468;2023-04-24T07:03:36;13.00;;;6.00;;
6203;SDS011;3135;42.602;23.468;2023-04-24T07:06:01;9.67;;;6.13;;
6203;SDS011;3135;42.602;23.468;2023-04-24T07:08:28;10.55;;;6.40;;
6203;SDS011;3135;42.602;23.468;2023-04-24T07:10:55;10.25;;;6.20;;
6203;SDS011;3135;42.602;23.468;2023-04-24T07:13:21;10.60;;;5.75;;
6203;SDS011;3135;42.602;23.468;2023-04-24T07:15:47;11.48;;;5.97;;
6203;SDS011;3135;42.602;23.468;2023-04-24T07:18:15;12.25;;;5.70;;
6203;SDS011;3135;42.602;23.468;2023-04-24T07:20:40;15.40;;;6.23;;
6203;SDS011;3135;42.602;23.468;2023-04-24T07:23:06;7.07;;;5.60;;
6203;SDS011;3135;42.602;23.468;2023-04-24T07:25:31;9.65;;;5.60;;
6203;SDS011;3135;42.602;23.468;2023-04-24T07:27:57;10.48;;;5.82;;
6203;SDS011;3135;42.602;23.468;2023-04-24T07:30:22;11.35;;;5.70;;
6203;SDS011;3135;42.602;23.468;2023-04-24T07:32:48;10.15;;;5.32;;
6203;SDS011;3135;42.602;23.468;2023-04-24T07:35:13;9.43;;;5.50;;
6203;SDS011;3135;42.602;23.468;2023-04-24T07:37:39;8.43;;;5.13;;
6203;SDS011;3135;42.602;23.468;2023-04-24T07:40:05;8.00;;;5.47;;
6203;SDS011;3135;42.602;23.468;2023-04-24T07:42:31;9.95;;;5.88;;
6203;SDS011;3135;42.602;23.468;2023-04-24T07:44:59;10.18;;;5.57;;
6203;SDS011;3135;42.602;23.468;2023-04-24T07:47:24;10.10;;;5.68;;
6203;SDS011;3135;42.602;23.468;2023-04-24T07:49:50;8.38;;;5.32;;
6203;SDS011;3135;42.602;23.468;2023-04-24T07:52:16;7.10;;;5.50;;
6203;SDS011;3135;42.602;23.468;2023-04-24T07:54:41;10.35;;;5.43;;
6203;SDS011;3135;42.602;23.468;2023-04-24T07:57:07;7.17;;;5.30;;
6203;SDS011;3135;42.602;23.468;2023-04-24T07:59:33;7.17;;;5.03;;
6203;SDS011;3135;42.602;23.468;2023-04-24T08:01:59;5.18;;;4.10;;
6203;SDS011;3135;42.602;23.468;2023-04-24T08:04:26;7.00;;;4.55;;
6203;SDS011;3135;42.602;23.468;2023-04-24T08:06:51;7.13;;;4.30;;
6203;SDS011;3135;42.602;23.468;2023-04-24T08:09:17;6.67;;;4.37;;
6203;SDS011;3135;42.602;23.468;2023-04-24T08:11:43;6.77;;;4.27;;
6203;SDS011;3135;42.602;23.468;2023-04-24T08:14:08;6.90;;;4.50;;
6203;SDS011;3135;42.602;23.468;2023-04-24T08:16:34;5.47;;;4.40;;
6203;SDS011;3135;42.602;23.468;2023-04-24T08:18:59;6.97;;;4.23;;
6203;SDS011;3135;42.602;23.468;2023-04-24T08:21:25;5.60;;;4.00;;
6203;SDS011;3135;42.602;23.468;2023-04-24T08:23:52;5.60;;;4.25;;
6203;SDS011;3135;42.602;23.468;2023-04-24T08:26:17;6.17;;;4.20;;
6203;SDS011;3135;42.602;23.468;2023-04-24T08:28:43;5.10;;;4.10;;
6203;SDS011;3135;42.602;23.468;2023-04-24T08:31:08;8.17;;;4.50;;
6203;SDS011;3135;42.602;23.468;2023-04-24T08:33:34;6.97;;;4.30;;
6203;SDS011;3135;42.602;23.468;2023-04-24T08:36:03;5.32;;;4.07;;
6203;SDS011;3135;42.602;23.468;2023-04-24T08:38:29;8.25;;;4.25;;
6203;SDS011;3135;42.602;23.468;2023-04-24T08:40:56;6.10;;;4.28;;
6203;SDS011;3135;42.602;23.468;2023-04-24T08:43:23;6.95;;;4.45;;
6203;SDS011;3135;42.602;23.468;2023-04-24T08:45:56;5.97;;;4.35;;
6203;SDS011;3135;42.602;23.468;2023-04-24T08:48:24;4.53;;;3.90;;
6203;SDS011;3135;42.602;23.468;2023-04-24T08:50:50;4.93;;;4.00;;
6203;SDS011;3135;42.602;23.468;2023-04-24T08:53:16;7.18;;;4.20;;
6203;SDS011;3135;42.602;23.468;2023-04-24T08:55:43;9.38;;;3.95;;
6203;SDS011;3135;42.602;23.468;2023-04-24T08:58:11;5.55;;;4.03;;
6203;SDS011;3135;42.602;23.468;2023-04-24T09:00:38;5.90;;;3.78;;
6203;SDS011;3135;42.602;23.468;2023-04-24T09:03:05;9.23;;;4.07;;
6203;SDS011;3135;42.602;23.468;2023-04-24T09:05:31;7.10;;;3.90;;
6203;SDS011;3135;42.602;23.468;2023-04-24T09:07:57;5.18;;;3.58;;
6203;SDS011;3135;42.602;23.468;2023-04-24T09:10:26;5.55;;;3.63;;
6203;SDS011;3135;42.602;23.468;2023-04-24T09:12:53;9.02;;;4.38;;
6203;SDS011;3135;42.602;23.468;2023-04-24T09:15:20;7.45;;;4.45;;
6203;SDS011;3135;42.602;23.468;2023-04-24T09:17:45;6.50;;;4.10;;
6203;SDS011;3135;42.602;23.468;2023-04-24T09:20:11;6.30;;;4.10;;
6203;SDS011;3135;42.602;23.468;2023-04-24T09:22:37;4.13;;;3.72;;
6203;SDS011;3135;42.602;23.468;2023-04-24T09:25:06;5.75;;;3.90;;
6203;SDS011;3135;42.602;23.468;2023-04-24T09:27:34;6.00;;;3.60;;
6203;SDS011;3135;42.602;23.468;2023-04-24T09:30:00;6.10;;;3.60;;
6203;SDS011;3135;42.602;23.468;2023-04-24T09:32:26;6.20;;;3.72;;
6203;SDS011;3135;42.602;23.468;2023-04-24T09:35:12;4.22;;;3.67;;
6203;SDS011;3135;42.602;23.468;2023-04-24T09:37:43;6.35;;;3.83;;
6203;SDS011;3135;42.602;23.468;2023-04-24T09:40:14;4.72;;;3.72;;
6203;SDS011;3135;42.602;23.468;2023-04-24T09:42:59;6.07;;;3.95;;
6203;SDS011;3135;42.602;23.468;2023-04-24T09:45:27;7.05;;;3.90;;
6203;SDS011;3135;42.602;23.468;2023-04-24T09:47:59;6.03;;;3.80;;
6203;SDS011;3135;42.602;23.468;2023-04-24T09:50:25;4.10;;;3.67;;
6203;SDS011;3135;42.602;23.468;2023-04-24T09:53:04;5.13;;;3.80;;
6203;SDS011;3135;42.602;23.468;2023-04-24T09:55:32;4.22;;;3.80;;
6203;SDS011;3135;42.602;23.468;2023-04-24T09:57:59;5.60;;;3.90;;
6203;SDS011;3135;42.602;23.468;2023-04-24T10:00:29;6.03;;;4.07;;
6203;SDS011;3135;42.602;23.468;2023-04-24T10:03:05;7.45;;;4.00;;
6203;SDS011;3135;42.602;23.468;2023-04-24T10:05:31;4.32;;;3.42;;
6203;SDS011;3135;42.602;23.468;2023-04-24T10:08:05;4.00;;;3.42;;
6203;SDS011;3135;42.602;23.468;2023-04-24T10:10:33;5.88;;;3.70;;
6203;SDS011;3135;42.602;23.468;2023-04-24T10:13:00;8.95;;;3.50;;
6203;SDS011;3135;42.602;23.468;2023-04-24T10:15:26;4.32;;;3.85;;
6203;SDS011;3135;42.602;23.468;2023-04-24T10:17:52;4.00;;;3.58;;
6203;SDS011;3135;42.602;23.468;2023-04-24T10:20:21;5.18;;;4.10;;
6203;SDS011;3135;42.602;23.468;2023-04-24T10:22:49;3.97;;;3.58;;
6203;SDS011;3135;42.602;23.468;2023-04-24T10:25:20;5.25;;;4.03;;
6203;SDS011;3135;42.602;23.468;2023-04-24T10:27:47;4.55;;;3.55;;
6203;SDS011;3135;42.602;23.468;2023-04-24T10:30:13;4.05;;;3.47;;
6203;SDS011;3135;42.602;23.468;2023-04-24T10:32:39;4.40;;;3.35;;
6203;SDS011;3135;42.602;23.468;2023-04-24T10:35:09;4.10;;;3.37;;
6203;SDS011;3135;42.602;23.468;2023-04-24T10:37:37;3.95;;;3.20;;
6203;SDS011;3135;42.602;23.468;2023-04-24T10:40:05;5.50;;;3.70;;
6203;SDS011;3135;42.602;23.468;2023-04-24T10:42:33;4.55;;;3.65;;
6203;SDS011;3135;42.602;23.468;2023-04-24T10:44:58;7.55;;;3.50;;
6203;SDS011;3135;42.602;23.468;2023-04-24T10:47:27;4.68;;;3.40;;
6203;SDS011;3135;42.602;23.468;2023-04-24T10:49:52;4.33;;;3.93;;
6203;SDS011;3135;42.602;23.468;2023-04-24T10:52:18;4.07;;;3.50;;
6203;SDS011;3135;42.602;23.468;2023-04-24T10:54:44;3.70;;;3.10;;
6203;SDS011;3135;42.602;23.468;2023-04-24T10:59:43;5.57;;;3.57;;
6203;SDS011;3135;42.602;23.468;2023-04-24T11:02:09;4.63;;;3.40;;
6203;SDS011;3135;42.602;23.468;2023-04-24T11:04:35;3.70;;;3.30;;
6203;SDS011;3135;42.602;23.468;2023-04-24T11:07:00;5.10;;;3.33;;
6203;SDS011;3135;42.602;23.468;2023-04-24T11:09:28;5.75;;;3.70;;
6203;SDS011;3135;42.602;23.468;2023-04-24T11:12:05;4.60;;;3.60;;
6203;SDS011;3135;42.602;23.468;2023-04-24T11:14:58;5.30;;;3.42;;
6203;SDS011;3135;42.602;23.468;2023-04-24T11:17:30;4.35;;;3.88;;
6203;SDS011;3135;42.602;23.468;2023-04-24T11:20:02;3.97;;;3.30;;
6203;SDS011;3135;42.602;23.468;2023-04-24T11:22:29;3.33;;;2.85;;
6203;SDS011;3135;42.602;23.468;2023-04-24T11:24:59;4.43;;;3.28;;
6203;SDS011;3135;42.602;23.468;2023-04-24T11:27:27;4.47;;;3.33;;
6203;SDS011;3135;42.602;23.468;2023-04-24T11:35:05;3.75;;;2.90;;
6203;SDS011;3135;42.602;23.468;2023-04-24T11:37:34;5.97;;;3.00;;
6203;SDS011;3135;42.602;23.468;2023-04-24T11:40:00;3.80;;;2.80;;
6203;SDS011;3135;42.602;23.468;2023-04-24T11:42:26;4.10;;;3.10;;
6203;SDS011;3135;42.602;23.468;2023-04-24T11:44:52;5.03;;;2.60;;
6203;SDS011;3135;42.602;23.468;2023-04-24T11:47:20;2.72;;;2.50;;
6203;SDS011;3135;42.602;23.468;2023-04-24T11:49:52;3.17;;;2.70;;
6203;SDS011;3135;42.602;23.468;2023-04-24T11:52:18;2.80;;;2.17;;
6203;SDS011;3135;42.602;23.468;2023-04-24T11:54:50;2.75;;;2.55;;
6203;SDS011;3135;42.602;23.468;2023-04-24T11:57:16;3.80;;;2.50;;
6203;SDS011;3135;42.602;23.468;2023-04-24T11:59:44;2.70;;;2.50;;
6203;SDS011;3135;42.602;23.468;2023-04-24T12:02:19;2.45;;;2.28;;
6203;SDS011;3135;42.602;23.468;2023-04-24T12:04:45;3.20;;;2.90;;
6203;SDS011;3135;42.602;23.468;2023-04-24T12:07:11;4.40;;;3.90;;
6203;SDS011;3135;42.602;23.468;2023-04-24T12:09:40;5.10;;;3.50;;
6203;SDS011;3135;42.602;23.468;2023-04-24T12:12:10;3.88;;;2.90;;
6203;SDS011;3135;42.602;23.468;2023-04-24T12:14:57;3.27;;;2.77;;
6203;SDS011;3135;42.602;23.468;2023-04-24T12:17:33;2.55;;;2.35;;
6203;SDS011;3135;42.602;23.468;2023-04-24T12:20:00;2.70;;;2.50;;
6203;SDS011;3135;42.602;23.468;2023-04-24T12:22:27;2.70;;;2.50;;
6203;SDS011;3135;42.602;23.468;2023-04-24T12:25:00;2.60;;;2.40;;
6203;SDS011;3135;42.602;23.468;2023-04-24T12:27:36;5.75;;;3.60;;
6203;SDS011;3135;42.602;23.468;2023-04-24T12:30:03;2.50;;;2.30;;
6203;SDS011;3135;42.602;23.468;2023-04-24T12:32:30;2.30;;;2.10;;
6203;SDS011;3135;42.602;23.468;2023-04-24T12:34:56;3.53;;;2.42;;
6203;SDS011;3135;42.602;23.468;2023-04-24T12:37:26;2.88;;;2.25;;
6203;SDS011;3135;42.602;23.468;2023-04-24T12:40:00;2.40;;;2.20;;
6203;SDS011;3135;42.602;23.468;2023-04-24T12:42:29;2.20;;;2.00;;
6203;SDS011;3135;42.602;23.468;2023-04-24T12:44:56;2.47;;;2.28;;
6203;SDS011;3135;42.602;23.468;2023-04-24T12:47:31;2.50;;;1.95;;
6203;SDS011;3135;42.602;23.468;2023-04-24T12:49:58;4.20;;;2.40;;
6203;SDS011;3135;42.602;23.468;2023-04-24T12:52:27;2.20;;;2.00;;
6203;SDS011;3135;42.602;23.468;2023-04-24T12:54:55;3.05;;;2.53;;
6203;SDS011;3135;42.602;23.468;2023-04-24T12:57:25;4.03;;;2.90;;
6203;SDS011;3135;42.602;23.468;2023-04-24T12:59:55;3.53;;;2.42;;
6203;SDS011;3135;42.602;23.468;2023-04-24T13:02:24;3.17;;;2.83;;
6203;SDS011;3135;42.602;23.468;2023-04-24T13:04:52;3.20;;;2.90;;
6203;SDS011;3135;42.602;23.468;2023-04-24T13:07:18;3.10;;;2.80;;
6203;SDS011;3135;42.602;23.468;2023-04-24T13:09:45;4.07;;;3.20;;
6203;SDS011;3135;42.602;23.468;2023-04-24T13:12:11;3.70;;;3.30;;
6203;SDS011;3135;42.602;23.468;2023-04-24T13:14:37;3.65;;;3.10;;
6203;SDS011;3135;42.602;23.468;2023-04-24T13:17:03;3.67;;;3.37;;
6203;SDS011;3135;42.602;23.468;2023-04-24T13:19:28;3.47;;;3.17;;
6203;SDS011;3135;42.602;23.468;2023-04-24T13:21:55;3.40;;;3.10;;
6203;SDS011;3135;42.602;23.468;2023-04-24T13:24:25;3.90;;;3.30;;
6203;SDS011;3135;42.602;23.468;2023-04-24T13:26:51;3.70;;;3.40;;
6203;SDS011;3135;42.602;23.468;2023-04-24T13:29:19;3.67;;;3.38;;
6203;SDS011;3135;42.602;23.468;2023-04-24T13:31:49;4.65;;;3.60;;
6203;SDS011;3135;42.602;23.468;2023-04-24T13:34:16;4.18;;;3.78;;
6203;SDS011;3135;42.602;23.468;2023-04-24T13:36:45;6.97;;;4.00;;
6203;SDS011;3135;42.602;23.468;2023-04-24T13:39:11;4.20;;;3.80;;
6203;SDS011;3135;42.602;23.468;2023-04-24T13:41:36;4.37;;;3.73;;
6203;SDS011;3135;42.602;23.468;2023-04-24T13:44:02;5.70;;;5.00;;
6203;SDS011;3135;42.602;23.468;2023-04-24T13:46:28;5.45;;;4.38;;
6203;SDS011;3135;42.602;23.468;2023-04-24T13:48:55;5.40;;;3.80;;
6203;SDS011;3135;42.602;23.468;2023-04-24T13:51:20;4.93;;;3.85;;
6203;SDS011;3135;42.602;23.468;2023-04-24T13:53:46;4.75;;;4.03;;
6203;SDS011;3135;42.602;23.468;2023-04-24T13:56:11;7.07;;;3.70;;
6203;SDS011;3135;42.602;23.468;2023-04-24T13:58:38;7.07;;;3.83;;
6203;SDS011;3135;42.602;23.468;2023-04-24T14:01:04;5.25;;;3.95;;
6203;SDS011;3135;42.602;23.468;2023-04-24T14:03:30;5.65;;;3.90;;
6203;SDS011;3135;42.602;23.468;2023-04-24T14:05:55;3.30;;;3.00;;
6203;SDS011;3135;42.602;23.468;2023-04-24T14:08:21;3.22;;;2.92;;
6203;SDS011;3135;42.602;23.468;2023-04-24T14:10:47;2.65;;;2.42;;
6203;SDS011;3135;42.602;23.468;2023-04-24T14:13:12;2.78;;;2.58;;
6203;SDS011;3135;42.602;23.468;2023-04-24T14:15:38;2.70;;;2.47;;
6203;SDS011;3135;42.602;23.468;2023-04-24T14:18:04;2.70;;;2.50;;
6203;SDS011;3135;42.602;23.468;2023-04-24T14:20:29;2.85;;;2.65;;
6203;SDS011;3135;42.602;23.468;2023-04-24T14:22:55;3.33;;;2.60;;
6203;SDS011;3135;42.602;23.468;2023-04-24T14:25:23;2.63;;;2.42;;
6203;SDS011;3135;42.602;23.468;2023-04-24T14:27:49;3.60;;;2.50;;
6203;SDS011;3135;42.602;23.468;2023-04-24T14:30:15;2.95;;;2.75;;
6203;SDS011;3135;42.602;23.468;2023-04-24T14:32:41;2.85;;;2.55;;
6203;SDS011;3135;42.602;23.468;2023-04-24T14:35:06;2.70;;;2.50;;
6203;SDS011;3135;42.602;23.468;2023-04-24T14:37:32;4.78;;;2.53;;
6203;SDS011;3135;42.602;23.468;2023-04-24T14:39:57;2.90;;;2.33;;
6203;SDS011;3135;42.602;23.468;2023-04-24T14:42:23;2.83;;;2.55;;
6203;SDS011;3135;42.602;23.468;2023-04-24T14:44:48;3.57;;;2.50;;
6203;SDS011;3135;42.602;23.468;2023-04-24T14:47:14;3.90;;;2.70;;
6203;SDS011;3135;42.602;23.468;2023-04-24T14:49:39;3.60;;;2.80;;
6203;SDS011;3135;42.602;23.468;2023-04-24T14:52:04;3.05;;;2.70;;
6203;SDS011;3135;42.602;23.468;2023-04-24T14:54:30;3.83;;;2.70;;
6203;SDS011;3135;42.602;23.468;2023-04-24T14:56:55;2.87;;;2.63;;
6203;SDS011;3135;42.602;23.468;2023-04-24T14:59:23;6.00;;;4.28;;
6203;SDS011;3135;42.602;23.468;2023-04-24T15:01:49;4.30;;;2.80;;